Time;durP1;ratioP1;P1;durP2;ratioP2;P2;SDS_P1;SDS_P2;PMS_P1;PMS_P2;Temp;Humidity;BMP_temperature;BMP_pressure;BME280_temperature;BME280_humidity;BME280_pressure;Samples;Min_cycle;Max_cycle;Signal;HPM_P1;HPM_P2
2022/11/05 00:10:45;;;;;;;7.28;2.42;;;14.30;96.70;;;;;;4932110;29;20082;-71
2022/11/05 00:19:05;;;;;;;8.00;2.58;;;14.30;96.70;;;;;;4946352;28;20134;-71
2022/11/05 00:27:06;;;;;;;11.90;2.40;;;14.20;96.70;;;;;;4965562;28;20356;-71
2022/11/05 00:29:35;;;;;;;7.53;2.17;;;14.20;96.70;;;;;;4932992;28;20390;-72
2022/11/05 00:32:04;;;;;;;6.68;2.42;;;14.10;96.70;;;;;;4959857;28;20587;-71
2022/11/05 00:34:32;;;;;;;5.93;2.50;;;14.10;96.70;;;;;;4924361;29;20039;-71
2022/11/05 00:36:59;;;;;;;11.50;3.10;;;14.10;96.70;;;;;;4961800;28;20138;-71
2022/11/05 00:39:27;;;;;;;8.32;2.83;;;14.10;96.70;;;;;;4929179;28;20851;-71
2022/11/05 00:50:16;;;;;;;7.88;2.88;;;14.00;96.70;;;;;;4959588;28;20046;-70
2022/11/05 00:52:55;;;;;;;6.35;2.00;;;14.00;96.70;;;;;;4952749;28;20039;-70
2022/11/05 00:55:27;;;;;;;6.68;2.38;;;14.00;96.70;;;;;;4946628;28;20549;-70
2022/11/05 00:57:55;;;;;;;6.15;2.42;;;14.00;96.70;;;;;;4943413;28;20126;-70
2022/11/05 01:00:25;;;;;;;6.43;2.50;;;13.90;96.70;;;;;;4960600;28;20580;-70
2022/11/05 01:02:56;;;;;;;5.85;2.20;;;14.00;96.70;;;;;;4956187;28;20078;-70
2022/11/05 01:05:25;;;;;;;9.77;2.67;;;13.90;96.70;;;;;;4931355;29;20130;-70
2022/11/05 01:07:53;;;;;;;5.28;2.28;;;13.90;96.70;;;;;;4929500;28;20513;-69
2022/11/05 01:10:21;;;;;;;8.35;2.88;;;13.90;96.70;;;;;;4945743;28;20102;-70
2022/11/05 01:12:49;;;;;;;8.60;2.85;;;13.90;96.70;;;;;;4932582;28;20043;-70
2022/11/05 01:15:18;;;;;;;5.57;2.33;;;13.90;96.70;;;;;;4974507;28;20106;-70
2022/11/05 01:17:46;;;;;;;6.68;2.45;;;13.90;96.70;;;;;;4953545;28;20062;-70
2022/11/05 01:20:15;;;;;;;5.55;1.95;;;13.90;96.70;;;;;;4961439;28;20425;-70
2022/11/05 01:22:43;;;;;;;6.07;2.20;;;13.90;96.70;;;;;;4937030;28;20461;-70
2022/11/05 01:25:11;;;;;;;5.07;2.25;;;14.00;96.70;;;;;;4946141;28;20063;-70
2022/11/05 01:27:38;;;;;;;8.00;2.40;;;13.90;96.70;;;;;;4958607;28;20051;-70
2022/11/05 01:30:07;;;;;;;8.18;2.47;;;13.90;96.70;;;;;;4928139;29;20510;-70
2022/11/05 01:32:36;;;;;;;7.75;3.20;;;13.80;96.70;;;;;;4946030;28;20372;-70
2022/11/05 01:35:09;;;;;;;8.82;2.35;;;13.80;96.70;;;;;;4945393;28;20664;-70
2022/11/05 01:37:38;;;;;;;4.72;1.92;;;13.80;96.70;;;;;;4944144;28;20102;-70
2022/11/05 01:40:09;;;;;;;9.43;2.63;;;13.80;96.70;;;;;;4936223;28;20593;-70
2022/11/05 01:42:37;;;;;;;4.78;1.50;;;13.70;96.70;;;;;;4940017;28;20057;-70
2022/11/05 01:45:11;;;;;;;4.55;1.70;;;13.70;96.70;;;;;;4953024;28;20581;-70
2022/11/05 01:48:00;;;;;;;2.97;1.67;;;13.70;96.70;;;;;;4962197;28;20465;-70
2022/11/05 01:50:33;;;;;;;6.25;1.80;;;13.60;96.70;;;;;;4943949;28;20059;-70
2022/11/05 01:53:08;;;;;;;7.95;2.20;;;13.70;96.70;;;;;;4937197;28;20066;-70
2022/11/05 01:55:40;;;;;;;4.68;2.03;;;13.60;96.70;;;;;;4948498;28;20055;-71
2022/11/05 01:58:13;;;;;;;7.28;2.30;;;13.60;96.70;;;;;;4940794;28;20055;-70
2022/11/05 02:00:42;;;;;;;6.97;1.98;;;13.60;96.70;;;;;;4931394;29;20458;-71
2022/11/05 02:03:11;;;;;;;5.22;1.67;;;13.50;96.70;;;;;;4932605;29;20118;-71
2022/11/05 02:05:40;;;;;;;7.00;2.47;;;13.40;96.70;;;;;;4940148;28;20074;-70
2022/11/05 02:08:16;;;;;;;6.07;2.00;;;13.50;96.70;;;;;;4959276;28;20129;-70
2022/11/05 02:10:45;;;;;;;4.20;1.60;;;13.40;96.70;;;;;;4931067;29;20432;-71
2022/11/05 02:13:12;;;;;;;5.35;1.90;;;13.40;96.70;;;;;;4951432;28;20042;-70
2022/11/05 02:15:53;;;;;;;4.95;1.65;;;13.40;96.70;;;;;;4949278;28;20050;-70
2022/11/05 02:18:32;;;;;;;5.32;1.75;;;13.30;96.70;;;;;;4957399;28;20081;-70
2022/11/05 02:21:27;;;;;;;5.95;2.20;;;13.40;96.70;;;;;;4958714;28;20612;-70
2022/11/05 02:24:29;;;;;;;6.05;1.88;;;13.30;96.70;;;;;;4930789;28;20497;-71
2022/11/05 02:27:15;;;;;;;4.68;1.58;;;13.30;96.70;;;;;;4914934;29;20061;-70
2022/11/05 02:30:10;;;;;;;3.85;1.42;;;13.30;96.70;;;;;;4947667;28;20036;-70
2022/11/05 02:33:09;;;;;;;7.05;2.00;;;13.30;96.70;;;;;;4930648;29;20485;-71
2022/11/05 02:36:01;;;;;;;6.43;2.25;;;13.30;96.70;;;;;;4931516;28;20039;-70
2022/11/05 02:38:39;;;;;;;4.63;1.63;;;13.30;96.70;;;;;;4950120;28;20051;-70
2022/11/05 02:41:15;;;;;;;5.35;1.70;;;13.30;96.70;;;;;;4931543;28;20050;-70
2022/11/05 02:43:51;;;;;;;8.20;2.03;;;13.30;96.70;;;;;;4933688;28;20049;-70
2022/11/05 02:46:30;;;;;;;6.13;1.77;;;13.20;96.70;;;;;;4965281;28;20038;-70
2022/11/05 02:49:08;;;;;;;5.65;1.55;;;13.20;96.70;;;;;;4967005;28;20050;-70
2022/11/05 02:51:44;;;;;;;7.05;2.03;;;13.20;96.70;;;;;;4963883;28;20047;-71
2022/11/05 02:54:19;;;;;;;3.40;1.10;;;13.20;96.70;;;;;;4951615;28;20578;-70
2022/11/05 02:56:50;;;;;;;4.18;1.70;;;13.20;96.70;;;;;;4962067;28;20043;-70
2022/11/05 02:59:18;;;;;;;5.20;1.60;;;13.10;96.70;;;;;;4932886;29;20612;-70
2022/11/05 03:01:47;;;;;;;6.13;1.90;;;13.00;96.70;;;;;;4951191;28;20134;-71
2022/11/05 03:04:18;;;;;;;8.95;2.03;;;13.10;96.70;;;;;;4947907;28;20065;-71
2022/11/05 03:07:19;;;;;;;5.95;1.77;;;13.00;96.70;;;;;;4932590;28;20516;-70
2022/11/05 03:10:10;;;;;;;3.08;1.52;;;13.00;96.70;;;;;;4868298;29;20084;-70
2022/11/05 03:12:49;;;;;;;7.43;1.83;;;12.90;96.70;;;;;;4884361;29;20143;-71
2022/11/05 03:15:31;;;;;;;4.78;1.55;;;12.90;96.70;;;;;;4887128;29;20060;-71
2022/11/05 03:18:07;;;;;;;8.98;2.30;;;12.90;96.70;;;;;;4871246;29;20619;-71
2022/11/05 03:20:43;;;;;;;5.68;1.70;;;12.90;96.70;;;;;;4884889;29;20160;-70
2022/11/05 03:23:14;;;;;;;;;;;12.90;96.70;;;;;;4888107;29;20055;-70
2022/11/05 03:25:46;;;;;;;7.03;2.13;;;12.90;96.70;;;;;;4902691;29;19987;-71
2022/11/05 03:28:16;;;;;;;8.10;1.95;;;12.90;96.70;;;;;;4861948;29;20080;-71
2022/11/05 03:30:56;;;;;;;6.68;1.88;;;12.80;96.70;;;;;;4871526;29;20114;-71
2022/11/05 03:33:27;;;;;;;8.65;1.85;;;12.80;96.70;;;;;;4894013;29;20109;-70
2022/11/05 03:36:00;;;;;;;5.93;1.73;;;12.80;96.70;;;;;;4897427;29;20522;-70
2022/11/05 03:38:32;;;;;;;4.90;2.13;;;12.80;96.70;;;;;;4898855;29;20053;-71
2022/11/05 03:41:05;;;;;;;4.78;1.50;;;12.80;96.70;;;;;;4887325;29;20060;-71
2022/11/05 03:43:36;;;;;;;7.90;2.08;;;12.80;96.70;;;;;;4887712;29;20545;-71
2022/11/05 03:46:08;;;;;;;8.38;2.33;;;12.80;96.70;;;;;;4902166;29;20086;-71
2022/11/05 03:48:40;;;;;;;8.48;2.28;;;12.80;96.70;;;;;;4939711;29;20449;-71
2022/11/05 03:51:18;;;;;;;4.07;1.60;;;12.80;96.70;;;;;;4934207;29;20590;-71
2022/11/05 03:53:49;;;;;;;4.00;1.60;;;12.80;96.70;;;;;;4938911;29;20102;-71
2022/11/05 03:56:24;;;;;;;5.93;1.90;;;12.70;96.70;;;;;;4938847;29;20047;-71
2022/11/05 03:58:53;;;;;;;8.75;1.85;;;12.60;96.70;;;;;;4938963;28;20071;-71
2022/11/05 04:01:26;;;;;;;3.92;1.50;;;12.70;96.70;;;;;;4926868;29;20107;-71
2022/11/05 04:03:54;;;;;;;4.32;1.50;;;12.60;96.70;;;;;;4965688;28;20107;-71
2022/11/05 04:14:43;;;;;;;4.32;1.45;;;12.50;96.70;;;;;;4922927;29;20091;-71
2022/11/05 04:17:11;;;;;;;5.38;1.50;;;12.40;96.70;;;;;;4942914;29;20039;-71
2022/11/05 04:25:18;;;;;;;4.97;1.40;;;12.30;96.70;;;;;;4927955;29;20577;-71
2022/11/05 04:27:46;;;;;;;3.97;1.33;;;12.30;96.70;;;;;;4927045;29;20075;-71
2022/11/05 04:30:20;;;;;;;3.60;1.23;;;12.30;96.70;;;;;;4927300;29;20402;-71
2022/11/05 04:32:59;;;;;;;3.38;0.98;;;12.20;96.70;;;;;;4926453;29;20051;-71
2022/11/05 04:35:29;;;;;;;4.43;1.42;;;12.20;96.70;;;;;;4925545;29;20700;-71
2022/11/05 04:37:59;;;;;;;4.03;1.30;;;12.20;96.70;;;;;;4924642;29;20048;-72
2022/11/05 04:40:28;;;;;;;1.85;0.80;;;12.10;96.70;;;;;;4932519;28;20131;-71
2022/11/05 04:42:56;;;;;;;2.33;1.00;;;12.10;96.70;;;;;;4921142;29;20514;-71
2022/11/05 04:45:25;;;;;;;2.50;0.90;;;12.10;96.70;;;;;;4925994;29;20056;-71
2022/11/05 04:47:54;;;;;;;3.53;1.08;;;12.00;96.70;;;;;;4922926;29;20047;-71
2022/11/05 04:50:22;;;;;;;3.22;1.30;;;12.00;96.70;;;;;;4928237;29;20044;-71
2022/11/05 04:52:50;;;;;;;3.33;1.50;;;12.00;96.70;;;;;;4929386;29;20589;-71
2022/11/05 04:55:20;;;;;;;2.65;0.80;;;11.90;96.70;;;;;;4942734;29;20485;-71
2022/11/05 04:57:48;;;;;;;2.75;0.80;;;11.80;96.70;;;;;;4935197;28;20035;-71
2022/11/05 05:00:17;;;;;;;3.60;1.00;;;11.80;96.70;;;;;;4940996;29;20390;-71
2022/11/05 05:02:45;;;;;;;1.88;0.90;;;11.80;96.70;;;;;;4934383;29;20142;-71
2022/11/05 05:05:13;;;;;;;2.20;1.13;;;11.70;96.70;;;;;;4936242;29;20043;-71
2022/11/05 05:07:41;;;;;;;3.67;1.55;;;11.70;96.70;;;;;;4934686;28;20641;-71
2022/11/05 05:10:10;;;;;;;3.08;1.20;;;11.60;96.70;;;;;;4924633;29;20048;-71
2022/11/05 05:12:39;;;;;;;2.50;1.10;;;11.50;96.70;;;;;;4928509;29;20510;-71
2022/11/05 05:15:08;;;;;;;3.17;1.50;;;11.50;96.70;;;;;;4927573;29;20043;-71
2022/11/05 05:17:35;;;;;;;4.03;1.85;;;11.40;96.70;;;;;;4927125;29;20130;-71
2022/11/05 05:22:52;;;;;;;8.57;4.85;;;11.40;96.70;;;;;;4930799;29;20046;-70
2022/11/05 05:25:19;;;;;;;6.63;4.13;;;11.40;96.70;;;;;;4937136;29;20502;-71
2022/11/05 05:27:49;;;;;;;5.82;3.90;;;11.50;96.70;;;;;;4932823;29;20054;-70
2022/11/05 05:30:17;;;;;;;5.45;3.47;;;11.40;96.70;;;;;;4925925;29;20490;-71
2022/11/05 05:32:45;;;;;;;6.95;3.90;;;11.40;96.70;;;;;;4928461;29;20051;-71
2022/11/05 05:35:13;;;;;;;4.80;3.55;;;11.50;96.70;;;;;;4933008;29;20118;-71
2022/11/05 05:37:41;;;;;;;7.15;3.42;;;11.60;96.70;;;;;;4940236;29;20047;-71
2022/11/05 05:40:10;;;;;;;4.32;3.30;;;11.60;96.70;;;;;;4934056;28;20043;-71
2022/11/05 05:42:38;;;;;;;3.80;2.85;;;11.50;96.70;;;;;;4939405;28;20077;-71
2022/11/05 05:45:12;;;;;;;4.38;2.72;;;11.50;96.70;;;;;;4938475;28;20054;-71
2022/11/05 05:47:40;;;;;;;4.00;2.47;;;11.60;96.70;;;;;;4958272;28;20059;-71
2022/11/05 05:50:08;;;;;;;5.63;2.63;;;11.60;96.70;;;;;;4937117;29;20083;-71
2022/11/05 05:52:39;;;;;;;3.58;2.30;;;11.60;96.70;;;;;;4927713;29;20442;-71
2022/11/05 05:55:11;;;;;;;3.58;2.92;;;11.50;96.70;;;;;;4956740;28;20054;-71
2022/11/05 05:57:39;;;;;;;3.58;2.50;;;11.50;96.70;;;;;;4948971;28;20050;-71
2022/11/05 06:00:14;;;;;;;5.35;2.80;;;11.40;96.70;;;;;;4932339;28;20078;-71
2022/11/05 06:02:42;;;;;;;4.25;2.85;;;11.40;96.70;;;;;;4953890;28;20060;-71
2022/11/05 06:05:10;;;;;;;5.18;2.67;;;11.50;96.70;;;;;;4959295;28;20051;-71
2022/11/05 06:07:38;;;;;;;3.70;2.53;;;11.40;96.70;;;;;;4935774;29;20329;-71
2022/11/05 06:10:06;;;;;;;4.88;2.45;;;11.40;96.70;;;;;;4940182;28;20050;-71
2022/11/05 06:12:34;;;;;;;4.10;2.40;;;11.40;96.70;;;;;;4964928;28;20089;-71
2022/11/05 06:15:03;;;;;;;4.00;2.75;;;11.40;96.70;;;;;;4953977;28;20490;-71
2022/11/05 06:17:33;;;;;;;4.28;2.22;;;11.40;96.70;;;;;;4949084;28;20135;-71
2022/11/05 06:20:02;;;;;;;4.53;2.60;;;11.50;96.70;;;;;;4930921;29;20478;-71
2022/11/05 06:22:29;;;;;;;6.10;2.60;;;11.50;96.70;;;;;;4931028;28;20047;-71
2022/11/05 06:24:57;;;;;;;7.03;2.90;;;11.50;96.70;;;;;;4950752;28;20041;-71
2022/11/05 06:27:25;;;;;;;7.47;3.20;;;11.50;96.70;;;;;;4944513;28;20746;-71
2022/11/05 06:29:52;;;;;;;4.75;2.90;;;11.40;96.70;;;;;;4950402;28;20541;-71
2022/11/05 06:32:20;;;;;;;5.85;2.42;;;11.40;96.70;;;;;;4939646;29;20055;-71
2022/11/05 06:34:49;;;;;;;6.43;3.15;;;11.50;96.70;;;;;;4930262;29;20047;-71
2022/11/05 06:37:17;;;;;;;4.57;2.30;;;11.60;96.70;;;;;;4953624;28;20054;-70
2022/11/05 06:39:45;;;;;;;6.30;3.00;;;11.60;96.70;;;;;;4930462;28;20043;-71
2022/11/05 06:42:13;;;;;;;7.22;2.88;;;11.60;96.70;;;;;;4930306;29;20063;-70
2022/11/05 06:44:46;;;;;;;9.40;2.80;;;11.50;96.70;;;;;;4953423;28;20051;-71
2022/11/05 06:47:13;;;;;;;6.25;2.63;;;11.50;96.70;;;;;;4963005;28;20038;-71
2022/11/05 06:49:41;;;;;;;5.03;2.97;;;11.60;96.70;;;;;;4930139;28;20578;-71
2022/11/05 06:52:10;;;;;;;7.45;2.97;;;11.70;96.70;;;;;;4922660;28;20050;-70
2022/11/05 06:54:39;;;;;;;4.10;2.78;;;11.70;96.70;;;;;;4941699;28;20043;-71
2022/11/05 06:57:10;;;;;;;4.95;2.80;;;11.70;96.70;;;;;;4944948;29;20055;-71
2022/11/05 06:59:38;;;;;;;9.30;3.13;;;11.80;96.70;;;;;;4964524;28;20054;-72
2022/11/05 07:02:09;;;;;;;4.88;2.35;;;11.70;96.70;;;;;;4972808;28;20052;-71
2022/11/05 07:04:37;;;;;;;5.22;3.00;;;11.70;96.70;;;;;;4933743;28;20457;-71
2022/11/05 07:07:04;;;;;;;4.82;2.72;;;11.80;96.70;;;;;;4939237;28;20572;-71
2022/11/05 07:09:37;;;;;;;6.32;2.70;;;11.70;96.70;;;;;;4941196;28;20069;-71
2022/11/05 07:12:06;;;;;;;6.82;2.60;;;11.80;96.70;;;;;;4938723;29;20051;-73
2022/11/05 07:14:34;;;;;;;4.63;2.50;;;11.80;96.70;;;;;;4963759;28;20147;-73
2022/11/05 07:17:02;;;;;;;3.28;2.70;;;12.20;96.70;;;;;;4957766;28;20031;-72
2022/11/05 07:19:30;;;;;;;3.85;2.40;;;12.50;96.70;;;;;;4916892;28;20065;-72
2022/11/05 07:21:58;;;;;;;4.28;2.50;;;12.70;96.70;;;;;;4930100;28;20044;-72
2022/11/05 07:24:26;;;;;;;5.70;2.72;;;12.90;96.70;;;;;;4948001;28;20048;-72
2022/11/05 07:26:55;;;;;;;4.82;2.10;;;13.00;96.70;;;;;;4946948;28;20451;-73
2022/11/05 07:29:23;;;;;;;4.50;2.33;;;13.10;96.70;;;;;;4957242;28;20567;-72
2022/11/05 07:31:51;;;;;;;7.50;2.72;;;13.20;96.70;;;;;;4939576;28;20130;-73
2022/11/05 07:34:19;;;;;;;5.68;2.45;;;13.30;96.70;;;;;;4943959;28;20055;-73
2022/11/05 07:36:47;;;;;;;10.38;5.50;;;13.30;96.70;;;;;;4937801;28;20043;-73
2022/11/05 07:39:15;;;;;;;5.15;2.70;;;13.30;96.70;;;;;;4946612;28;20054;-73
2022/11/05 07:41:43;;;;;;;7.40;3.17;;;13.40;96.70;;;;;;4952970;28;20064;-72
2022/11/05 07:44:13;;;;;;;4.75;2.92;;;13.40;96.70;;;;;;4948616;28;20094;-72
2022/11/05 07:46:41;;;;;;;4.38;2.58;;;13.40;96.70;;;;;;4929490;28;20141;-72
2022/11/05 07:49:09;;;;;;;4.93;2.50;;;13.50;96.70;;;;;;4933647;28;20621;-72
2022/11/05 07:51:37;;;;;;;5.50;2.38;;;13.50;96.70;;;;;;4931153;29;20047;-72
2022/11/05 07:54:05;;;;;;;4.82;2.50;;;13.60;96.70;;;;;;4945925;28;20047;-72
2022/11/05 07:56:33;;;;;;;5.07;2.72;;;13.60;96.70;;;;;;4928906;28;20438;-73
2022/11/05 07:59:01;;;;;;;3.95;2.20;;;13.60;96.70;;;;;;4957915;28;20077;-72
2022/11/05 08:01:32;;;;;;;3.40;2.22;;;13.70;96.70;;;;;;4931802;28;20129;-72
2022/11/05 08:04:00;;;;;;;5.40;3.40;;;13.70;96.70;;;;;;4937419;29;20053;-71
2022/11/05 08:06:28;;;;;;;4.80;2.60;;;13.60;96.70;;;;;;4929465;29;20121;-72
2022/11/05 08:08:56;;;;;;;4.43;2.85;;;13.60;96.70;;;;;;4951802;28;20050;-72
2022/11/05 08:11:24;;;;;;;5.95;3.47;;;13.50;96.70;;;;;;4954461;28;20043;-72
2022/11/05 08:13:52;;;;;;;5.65;3.95;;;13.60;96.70;;;;;;4938254;28;20097;-72
2022/11/05 08:16:20;;;;;;;39.65;23.15;;;13.90;96.70;;;;;;4946955;28;20105;-72
2022/11/05 08:18:50;;;;;;;37.00;24.20;;;14.00;96.70;;;;;;4928954;29;20047;-72
2022/11/05 08:21:18;;;;;;;59.10;35.53;;;14.10;96.70;;;;;;4955691;28;20604;-71
2022/11/05 08:23:46;;;;;;;33.92;22.42;;;14.10;96.70;;;;;;4954060;28;20313;-70
2022/11/05 08:26:14;;;;;;;41.30;24.02;;;14.10;96.70;;;;;;4936505;28;20070;-72
2022/11/05 08:28:42;;;;;;;36.15;23.30;;;14.20;96.70;;;;;;4958226;28;20514;-70
2022/11/05 08:31:09;;;;;;;39.53;24.60;;;14.20;96.70;;;;;;4923729;28;20065;-70
2022/11/05 08:33:37;;;;;;;35.33;21.30;;;14.30;96.70;;;;;;4940251;29;20055;-70
2022/11/05 08:36:07;;;;;;;32.42;21.17;;;14.40;96.70;;;;;;4929580;29;20098;-70
2022/11/05 08:38:35;;;;;;;24.90;15.55;;;14.40;96.70;;;;;;4934614;28;20051;-70
2022/11/05 08:41:04;;;;;;;16.80;11.65;;;14.50;96.70;;;;;;4929884;29;20481;-71
2022/11/05 08:43:32;;;;;;;11.45;7.55;;;14.50;96.70;;;;;;4945302;28;20078;-70
2022/11/05 08:46:00;;;;;;;9.35;5.50;;;14.40;96.70;;;;;;4945934;28;20061;-70
2022/11/05 08:48:28;;;;;;;10.77;7.72;;;14.50;96.70;;;;;;4945771;28;20051;-71
2022/11/05 08:51:00;;;;;;;12.48;6.40;;;14.60;96.70;;;;;;4929114;28;20414;-71
2022/11/05 08:53:30;;;;;;;10.00;5.95;;;14.70;96.70;;;;;;4945321;28;20047;-71
2022/11/05 08:55:58;;;;;;;9.05;5.13;;;14.80;96.70;;;;;;4929031;28;20531;-72
2022/11/05 08:58:26;;;;;;;3.83;1.92;;;15.00;96.70;;;;;;4930958;28;20078;-72
2022/11/05 09:00:54;;;;;;;3.00;1.40;;;15.20;96.70;;;;;;4945405;28;20050;-71
2022/11/05 09:03:28;;;;;;;2.70;1.33;;;15.30;96.70;;;;;;4950672;28;20047;-71
2022/11/05 09:05:56;;;;;;;13.85;2.65;;;15.40;96.70;;;;;;4938815;28;20789;-71
2022/11/05 09:08:24;;;;;;;3.53;1.05;;;15.60;96.70;;;;;;4948500;28;20134;-71
2022/11/05 09:10:53;;;;;;;3.25;1.20;;;15.70;96.70;;;;;;4951247;28;20122;-71
2022/11/05 09:13:21;;;;;;;1.23;0.93;;;15.80;96.70;;;;;;4933243;29;20055;-71
2022/11/05 09:15:50;;;;;;;2.17;0.88;;;15.90;96.70;;;;;;4946358;28;20526;-71
2022/11/05 09:18:19;;;;;;;2.25;0.55;;;16.00;96.70;;;;;;4927476;29;20070;-71
2022/11/05 09:20:47;;;;;;;2.70;0.93;;;16.10;96.70;;;;;;4945340;28;20101;-71
2022/11/05 09:23:15;;;;;;;2.60;0.70;;;16.20;96.70;;;;;;4927791;28;20106;-71
2022/11/05 09:25:44;;;;;;;1.67;0.47;;;16.20;96.70;;;;;;4927963;28;20039;-71
2022/11/05 09:28:15;;;;;;;2.15;0.80;;;16.20;96.70;;;;;;4948282;28;20039;-72
2022/11/05 09:30:46;;;;;;;1.95;0.50;;;16.20;96.70;;;;;;4941371;28;20055;-72
2022/11/05 09:33:15;;;;;;;2.13;0.77;;;16.20;96.70;;;;;;4932072;29;20550;-72
2022/11/05 09:35:43;;;;;;;2.75;0.50;;;16.30;96.70;;;;;;4928471;28;20185;-71
2022/11/05 09:38:11;;;;;;;1.23;0.32;;;16.50;96.70;;;;;;4932502;28;20070;-71
2022/11/05 09:40:45;;;;;;;1.08;0.40;;;16.60;96.70;;;;;;4937860;28;20410;-72
2022/11/05 09:43:19;;;;;;;1.95;0.38;;;16.80;96.70;;;;;;4941199;28;20093;-72
2022/11/05 09:45:50;;;;;;;2.63;0.32;;;16.90;96.70;;;;;;4949695;28;20035;-71
2022/11/05 09:48:21;;;;;;;1.55;0.22;;;17.00;96.70;;;;;;4962306;28;20059;-72
2022/11/05 09:50:51;;;;;;;0.75;0.30;;;17.10;96.70;;;;;;4935606;28;20117;-71
2022/11/05 09:53:22;;;;;;;0.80;0.50;;;17.20;96.70;;;;;;4944096;28;20514;-73
2022/11/05 09:55:52;;;;;;;1.40;0.30;;;17.40;96.70;;;;;;4955869;28;20063;-72
2022/11/05 09:58:38;;;;;;;1.10;0.25;;;17.50;96.70;;;;;;4936892;28;20438;-72
2022/11/05 10:01:11;;;;;;;1.13;0.38;;;17.70;96.70;;;;;;4927765;29;20755;-72
2022/11/05 10:03:44;;;;;;;0.80;0.17;;;17.90;96.70;;;;;;4935544;28;20667;-72
2022/11/05 10:06:19;;;;;;;0.57;0.30;;;18.10;96.70;;;;;;4946661;28;20074;-72
2022/11/05 10:08:51;;;;;;;2.10;0.20;;;18.20;96.70;;;;;;4946359;28;20043;-72
2022/11/05 10:11:27;;;;;;;3.17;0.30;;;18.20;96.70;;;;;;4928354;29;20154;-71
2022/11/05 10:14:01;;;;;;;1.83;0.10;;;18.30;96.70;;;;;;4927351;29;20066;-72
2022/11/05 10:16:31;;;;;;;1.50;0.40;;;18.40;96.70;;;;;;4945364;28;20530;-71
2022/11/05 10:19:06;;;;;;;0.73;0.17;;;18.40;96.70;;;;;;4930810;28;20102;-71
2022/11/05 10:21:34;;;;;;;1.02;0.30;;;18.50;96.70;;;;;;4944919;28;20079;-71
2022/11/05 10:24:22;;;;;;;1.73;0.30;;;18.70;96.70;;;;;;4946661;28;20039;-71
2022/11/05 10:26:52;;;;;;;1.95;0.10;;;18.70;96.70;;;;;;4939128;28;20051;-71
2022/11/05 10:29:28;;;;;;;3.33;0.57;;;18.90;96.70;;;;;;4954441;28;20126;-71
2022/11/05 10:31:57;;;;;;;0.65;0.20;;;19.00;96.70;;;;;;4941114;28;20046;-72
2022/11/05 10:34:29;;;;;;;0.65;0.32;;;18.80;96.70;;;;;;4959579;28;20509;-72
2022/11/05 10:36:58;;;;;;;0.88;0.20;;;18.70;96.70;;;;;;4963147;28;20594;-71
2022/11/05 10:39:28;;;;;;;1.33;0.20;;;18.90;96.70;;;;;;4935633;28;20079;-71
2022/11/05 10:42:13;;;;;;;0.60;0.30;;;19.00;96.70;;;;;;4949733;28;20161;-71
2022/11/05 10:45:00;;;;;;;0.70;0.17;;;19.10;96.70;;;;;;4931722;28;20052;-71
2022/11/05 10:47:42;;;;;;;1.75;0.30;;;19.10;96.70;;;;;;4925809;28;20055;-71
2022/11/05 10:50:14;;;;;;;0.40;0.10;;;19.10;96.70;;;;;;4944122;28;20050;-71
2022/11/05 10:52:52;;;;;;;1.10;0.20;;;19.00;96.70;;;;;;4944471;29;20599;-71
2022/11/05 10:55:23;;;;;;;0.30;0.10;;;19.00;96.70;;;;;;4958278;28;20509;-71
2022/11/05 10:57:52;;;;;;;1.38;0.20;;;19.00;96.70;;;;;;4946282;28;20288;-71
2022/11/05 11:00:24;;;;;;;1.42;0.30;;;19.00;96.70;;;;;;4955417;28;20045;-72
2022/11/05 11:02:56;;;;;;;1.45;0.10;;;18.90;96.70;;;;;;4939275;29;20071;-71
2022/11/05 11:05:28;;;;;;;0.95;0.22;;;19.00;96.70;;;;;;4935273;29;20086;-71
2022/11/05 11:08:01;;;;;;;0.55;0.20;;;19.00;96.70;;;;;;4948972;28;20090;-71
2022/11/05 11:10:33;;;;;;;1.98;0.20;;;19.00;96.70;;;;;;4962355;28;20125;-71
2022/11/05 11:13:02;;;;;;;1.70;0.20;;;19.00;96.70;;;;;;4953635;28;20043;-71
2022/11/05 11:15:31;;;;;;;0.63;0.10;;;19.20;96.70;;;;;;4962729;28;20046;-71
2022/11/05 11:18:23;;;;;;;2.53;0.10;;;19.30;96.70;;;;;;4936987;28;20062;-71
2022/11/05 11:20:52;;;;;;;1.45;0.10;;;19.30;96.70;;;;;;4939205;28;20051;-71
2022/11/05 11:23:20;;;;;;;0.30;0.10;;;19.40;96.70;;;;;;4933343;28;20516;-71
2022/11/05 11:25:51;;;;;;;1.98;0.35;;;19.50;96.70;;;;;;4930700;28;20520;-72
2022/11/05 11:28:23;;;;;;;1.00;0.20;;;19.50;96.70;;;;;;4939846;28;20485;-72
2022/11/05 11:31:02;;;;;;;2.47;0.20;;;19.60;96.70;;;;;;4964005;28;20047;-72
2022/11/05 11:33:32;;;;;;;1.10;0.13;;;19.70;96.70;;;;;;4962139;28;20054;-71
2022/11/05 11:36:00;;;;;;;0.55;0.10;;;19.80;96.70;;;;;;4961634;28;20035;-72
2022/11/05 11:38:30;;;;;;;0.63;0.20;;;19.80;96.70;;;;;;4938600;28;20582;-71
2022/11/05 11:41:17;;;;;;;0.55;0.10;;;19.80;96.70;;;;;;4930088;28;20485;-72
2022/11/05 11:43:45;;;;;;;1.90;0.20;;;19.90;96.70;;;;;;4911883;29;20048;-72
2022/11/05 11:46:32;;;;;;;1.05;0.10;;;20.00;96.70;;;;;;4905632;29;20068;-71
2022/11/05 11:49:30;;;;;;;0.90;0.30;;;20.10;96.70;;;;;;4908971;29;20055;-72
2022/11/05 11:52:02;;;;;;;1.60;0.10;;;20.10;96.70;;;;;;4915287;29;20055;-71
2022/11/05 11:54:32;;;;;;;0.20;0.10;;;20.10;96.70;;;;;;4914981;29;20052;-72
2022/11/05 11:57:00;;;;;;;0.73;0.13;;;20.20;96.70;;;;;;4907761;29;20056;-72
2022/11/05 11:59:29;;;;;;;1.70;0.13;;;20.30;96.70;;;;;;4920671;29;20150;-71
2022/11/05 12:02:53;;;;;;;1.92;0.20;;;20.30;96.70;;;;;;4915211;29;20048;-71
2022/11/05 12:05:39;;;;;;;0.28;0.20;;;20.40;96.70;;;;;;4919598;29;20059;-72
2022/11/05 12:08:34;;;;;;;0.20;0.08;;;20.40;96.70;;;;;;4957017;28;20789;-72
2022/11/05 12:11:07;;;;;;;0.43;0.15;;;20.40;96.70;;;;;;4914956;29;20040;-72
2022/11/05 12:13:54;;;;;;;0.40;0.10;;;20.60;96.70;;;;;;4916580;29;20056;-72
2022/11/05 12:16:35;;;;;;;0.80;0.20;;;20.70;96.70;;;;;;4909895;29;20048;-72
2022/11/05 12:19:15;;;;;;;0.50;0.20;;;20.70;96.70;;;;;;4920799;29;20056;-72
2022/11/05 12:21:53;;;;;;;0.80;0.20;;;20.70;96.70;;;;;;4917084;29;20051;-72
2022/11/05 12:24:50;;;;;;;0.70;0.25;;;20.70;96.70;;;;;;4916199;29;20044;-72
2022/11/05 12:27:32;;;;;;;1.77;0.10;;;20.90;96.70;;;;;;4919038;28;20067;-72
2022/11/05 12:30:04;;;;;;;0.63;0.17;;;20.90;96.70;;;;;;4913150;29;20143;-72
2022/11/05 12:33:09;;;;;;;0.68;0.10;;;21.10;96.70;;;;;;4907778;29;20054;-73
2022/11/05 12:35:52;;;;;;;0.40;0.20;;;21.10;96.70;;;;;;4909935;29;20349;-72
2022/11/05 12:38:39;;;;;;;0.70;0.10;;;21.20;96.70;;;;;;4908120;29;20052;-72
2022/11/05 12:41:19;;;;;;;0.22;0.10;;;21.20;96.70;;;;;;4913448;29;20036;-72
2022/11/05 12:44:00;;;;;;;0.30;0.10;;;21.30;96.70;;;;;;4931575;29;20139;-72
2022/11/05 12:46:35;;;;;;;0.63;0.22;;;21.20;96.70;;;;;;4921366;29;20058;-71
2022/11/05 12:49:33;;;;;;;1.30;0.20;;;21.10;96.70;;;;;;4914746;29;20056;-72
2022/11/05 12:52:18;;;;;;;0.35;0.20;;;21.10;96.70;;;;;;4904019;29;20044;-72
2022/11/05 12:55:01;;;;;;;1.25;0.20;;;21.10;96.70;;;;;;4907844;29;20052;-72
2022/11/05 12:57:34;;;;;;;0.32;0.10;;;21.10;96.70;;;;;;4905422;29;20055;-72
2022/11/05 13:00:07;;;;;;;1.45;0.30;;;21.10;96.70;;;;;;4925698;28;20068;-72
2022/11/05 13:02:39;;;;;;;1.08;0.00;;;21.10;96.70;;;;;;4914639;29;20058;-73
2022/11/05 13:05:14;;;;;;;0.10;0.00;;;21.20;96.70;;;;;;4908201;29;20047;-73
2022/11/05 13:07:50;;;;;;;0.10;0.10;;;21.20;96.70;;;;;;4909494;29;20455;-73
2022/11/05 13:10:26;;;;;;;0.80;0.10;;;21.20;96.70;;;;;;4922643;29;20058;-73
2022/11/05 13:13:02;;;;;;;0.93;0.10;;;21.20;96.70;;;;;;4902656;29;20048;-73
2022/11/05 13:15:37;;;;;;;0.45;0.10;;;21.10;96.70;;;;;;4908234;29;20475;-72
2022/11/05 13:18:12;;;;;;;0.65;0.10;;;21.20;96.70;;;;;;4907184;29;20079;-72
2022/11/05 13:20:47;;;;;;;0.88;0.20;;;21.20;96.70;;;;;;4906789;29;20052;-72
2022/11/05 13:23:25;;;;;;;2.90;1.83;;;21.20;96.70;;;;;;4902757;29;20083;-71
2022/11/05 13:25:58;;;;;;;2.15;0.73;;;21.20;96.70;;;;;;4904386;29;20075;-72
2022/11/05 13:28:34;;;;;;;1.90;0.85;;;21.30;96.70;;;;;;4906801;29;20106;-71
2022/11/05 13:31:08;;;;;;;0.82;0.40;;;21.20;96.70;;;;;;4907023;29;20056;-72
2022/11/05 13:33:39;;;;;;;0.60;0.28;;;21.20;96.70;;;;;;4908346;29;20475;-72
2022/11/05 13:39:08;;;;;;;0.30;0.10;;;21.20;96.70;;;;;;4908236;29;20043;-72
2022/11/05 13:42:03;;;;;;;2.75;0.30;;;21.20;96.70;;;;;;4913549;29;20051;-72
2022/11/05 13:44:55;;;;;;;0.32;0.20;;;21.20;96.70;;;;;;4947759;28;20061;-72
2022/11/05 13:47:39;;;;;;;1.48;0.30;;;21.20;96.70;;;;;;4940106;28;20047;-72
2022/11/05 13:50:56;;;;;;;0.40;0.17;;;21.20;96.70;;;;;;4949161;28;20070;-72
2022/11/05 13:53:51;;;;;;;1.85;0.00;;;21.20;96.70;;;;;;4906259;28;20051;-72
2022/11/05 13:56:32;;;;;;;0.65;0.15;;;21.10;96.70;;;;;;4924090;28;20067;-73
2022/11/05 13:59:20;;;;;;;0.80;0.20;;;20.90;96.70;;;;;;4931552;28;20051;-72
2022/11/05 14:01:51;;;;;;;0.38;0.10;;;20.80;96.70;;;;;;4919877;29;20051;-73
2022/11/05 14:04:29;;;;;;;0.63;0.20;;;20.60;96.70;;;;;;4949075;28;20626;-73